sensor_id;sensor_type;location;lat;lon;timestamp;temperature;humidity
20091;DHT22;10205;49.678;6.560;2023-11-19T00:00:52;13.40;79.10
20091;DHT22;10205;49.678;6.560;2023-11-19T00:03:21;13.40;79.10
20091;DHT22;10205;49.678;6.560;2023-11-19T00:05:48;13.40;79.00
20091;DHT22;10205;49.678;6.560;2023-11-19T00:08:16;13.40;79.00
20091;DHT22;10205;49.678;6.560;2023-11-19T00:10:43;13.40;79.00
20091;DHT22;10205;49.678;6.560;2023-11-19T00:13:12;13.40;79.10
20091;DHT22;10205;49.678;6.560;2023-11-19T00:15:39;13.50;79.20
20091;DHT22;10205;49.678;6.560;2023-11-19T00:18:06;13.50;79.20
20091;DHT22;10205;49.678;6.560;2023-11-19T00:20:34;13.50;79.20
20091;DHT22;10205;49.678;6.560;2023-11-19T00:23:01;13.50;79.20
20091;DHT22;10205;49.678;6.560;2023-11-19T00:25:29;13.50;79.20
20091;DHT22;10205;49.678;6.560;2023-11-19T00:27:56;13.50;79.10
20091;DHT22;10205;49.678;6.560;2023-11-19T00:30:23;13.50;80.00
20091;DHT22;10205;49.678;6.560;2023-11-19T00:32:50;13.50;79.10
20091;DHT22;10205;49.678;6.560;2023-11-19T00:35:17;13.50;79.00
20091;DHT22;10205;49.678;6.560;2023-11-19T00:37:46;13.50;79.20
20091;DHT22;10205;49.678;6.560;2023-11-19T00:40:13;13.60;79.20
20091;DHT22;10205;49.678;6.560;2023-11-19T00:42:41;13.60;79.20
20091;DHT22;10205;49.678;6.560;2023-11-19T00:45:09;13.60;79.30
20091;DHT22;10205;49.678;6.560;2023-11-19T00:47:37;13.60;79.40
20091;DHT22;10205;49.678;6.560;2023-11-19T00:50:05;13.60;79.40
20091;DHT22;10205;49.678;6.560;2023-11-19T00:52:35;13.60;79.50
20091;DHT22;10205;49.678;6.560;2023-11-19T00:55:05;13.60;79.40
20091;DHT22;10205;49.678;6.560;2023-11-19T00:57:32;13.60;79.50
20091;DHT22;10205;49.678;6.560;2023-11-19T01:00:00;13.60;79.50
20091;DHT22;10205;49.678;6.560;2023-11-19T01:02:27;13.60;79.40
20091;DHT22;10205;49.678;6.560;2023-11-19T01:04:54;13.60;79.40
20091;DHT22;10205;49.678;6.560;2023-11-19T01:07:21;13.60;79.40
20091;DHT22;10205;49.678;6.560;2023-11-19T01:09:49;13.70;79.40
20091;DHT22;10205;49.678;6.560;2023-11-19T01:12:18;13.70;79.50
20091;DHT22;10205;49.678;6.560;2023-11-19T01:14:45;13.70;79.50
20091;DHT22;10205;49.678;6.560;2023-11-19T01:20:23;13.70;79.70
20091;DHT22;10205;49.678;6.560;2023-11-19T01:22:50;13.70;79.40
20091;DHT22;10205;49.678;6.560;2023-11-19T01:25:17;13.70;79.50
20091;DHT22;10205;49.678;6.560;2023-11-19T01:27:46;13.70;79.50
20091;DHT22;10205;49.678;6.560;2023-11-19T01:30:13;13.80;79.50
20091;DHT22;10205;49.678;6.560;2023-11-19T01:32:40;13.80;79.50
20091;DHT22;10205;49.678;6.560;2023-11-19T01:35:08;13.80;79.50
20091;DHT22;10205;49.678;6.560;2023-11-19T01:37:35;13.80;79.50
20091;DHT22;10205;49.678;6.560;2023-11-19T01:40:02;13.80;79.50
20091;DHT22;10205;49.678;6.560;2023-11-19T01:42:36;13.80;79.50
20091;DHT22;10205;49.678;6.560;2023-11-19T01:45:06;13.80;79.60
20091;DHT22;10205;49.678;6.560;2023-11-19T01:47:35;13.90;79.60
20091;DHT22;10205;49.678;6.560;2023-11-19T01:53:55;13.80;79.70
20091;DHT22;10205;49.678;6.560;2023-11-19T01:56:23;13.90;79.50
20091;DHT22;10205;49.678;6.560;2023-11-19T01:58:53;13.90;79.50
20091;DHT22;10205;49.678;6.560;2023-11-19T02:01:23;13.90;79.50
20091;DHT22;10205;49.678;6.560;2023-11-19T02:03:51;13.90;79.60
20091;DHT22;10205;49.678;6.560;2023-11-19T02:06:18;13.90;79.60
20091;DHT22;10205;49.678;6.560;2023-11-19T02:08:45;13.90;79.60
20091;DHT22;10205;49.678;6.560;2023-11-19T02:11:13;14.00;79.70
20091;DHT22;10205;49.678;6.560;2023-11-19T02:13:40;14.00;79.80
20091;DHT22;10205;49.678;6.560;2023-11-19T02:16:09;13.90;79.80
20091;DHT22;10205;49.678;6.560;2023-11-19T02:18:38;14.00;79.90
20091;DHT22;10205;49.678;6.560;2023-11-19T02:21:05;14.00;79.90
20091;DHT22;10205;49.678;6.560;2023-11-19T02:23:33;14.00;79.90
20091;DHT22;10205;49.678;6.560;2023-11-19T02:26:05;14.00;79.90
20091;DHT22;10205;49.678;6.560;2023-11-19T02:28:41;14.00;79.90
20091;DHT22;10205;49.678;6.560;2023-11-19T02:31:09;14.10;80.00
20091;DHT22;10205;49.678;6.560;2023-11-19T02:33:39;14.10;80.00
20091;DHT22;10205;49.678;6.560;2023-11-19T02:36:08;14.10;80.00
20091;DHT22;10205;49.678;6.560;2023-11-19T02:38:36;14.10;80.00
20091;DHT22;10205;49.678;6.560;2023-11-19T02:41:04;14.10;80.00
20091;DHT22;10205;49.678;6.560;2023-11-19T02:43:32;14.10;80.00
20091;DHT22;10205;49.678;6.560;2023-11-19T02:46:02;14.20;80.00
20091;DHT22;10205;49.678;6.560;2023-11-19T02:48:32;14.20;80.00
20091;DHT22;10205;49.678;6.560;2023-11-19T02:51:00;14.20;80.00
20091;DHT22;10205;49.678;6.560;2023-11-19T02:53:29;14.20;80.10
20091;DHT22;10205;49.678;6.560;2023-11-19T02:55:56;14.20;80.10
20091;DHT22;10205;49.678;6.560;2023-11-19T02:58:28;14.20;80.20
20091;DHT22;10205;49.678;6.560;2023-11-19T03:00:57;14.20;80.30
20091;DHT22;10205;49.678;6.560;2023-11-19T03:03:28;14.20;80.30
20091;DHT22;10205;49.678;6.560;2023-11-19T03:06:04;14.30;80.50
20091;DHT22;10205;49.678;6.560;2023-11-19T03:08:31;14.30;80.40
20091;DHT22;10205;49.678;6.560;2023-11-19T03:10:59;14.30;80.40
20091;DHT22;10205;49.678;6.560;2023-11-19T03:13:51;14.40;80.50
20091;DHT22;10205;49.678;6.560;2023-11-19T03:16:18;14.30;80.60
20091;DHT22;10205;49.678;6.560;2023-11-19T03:18:47;14.40;80.30
20091;DHT22;10205;49.678;6.560;2023-11-19T03:21:14;14.40;80.40
20091;DHT22;10205;49.678;6.560;2023-11-19T03:23:41;14.40;80.30
20091;DHT22;10205;49.678;6.560;2023-11-19T03:26:10;14.40;80.20
20091;DHT22;10205;49.678;6.560;2023-11-19T03:28:37;14.50;80.40
20091;DHT22;10205;49.678;6.560;2023-11-19T03:31:05;14.50;80.20
20091;DHT22;10205;49.678;6.560;2023-11-19T03:33:33;14.50;80.20
20091;DHT22;10205;49.678;6.560;2023-11-19T03:36:02;14.50;80.30
20091;DHT22;10205;49.678;6.560;2023-11-19T03:38:30;14.50;80.50
20091;DHT22;10205;49.678;6.560;2023-11-19T03:40:57;14.60;80.70
20091;DHT22;10205;49.678;6.560;2023-11-19T03:43:24;14.60;80.70
20091;DHT22;10205;49.678;6.560;2023-11-19T03:45:52;14.60;80.60
20091;DHT22;10205;49.678;6.560;2023-11-19T03:48:19;14.60;80.70
20091;DHT22;10205;49.678;6.560;2023-11-19T03:50:46;14.60;80.60
20091;DHT22;10205;49.678;6.560;2023-11-19T03:53:16;14.60;80.50
20091;DHT22;10205;49.678;6.560;2023-11-19T03:55:44;14.70;80.70
20091;DHT22;10205;49.678;6.560;2023-11-19T03:58:11;14.70;80.70
20091;DHT22;10205;49.678;6.560;2023-11-19T04:00:39;14.70;80.60
20091;DHT22;10205;49.678;6.560;2023-11-19T04:03:06;14.70;80.60
20091;DHT22;10205;49.678;6.560;2023-11-19T04:05:33;14.80;80.70
20091;DHT22;10205;49.678;6.560;2023-11-19T04:11:42;14.80;81.10
20091;DHT22;10205;49.678;6.560;2023-11-19T04:14:09;14.80;80.80
20091;DHT22;10205;49.678;6.560;2023-11-19T04:16:36;14.80;80.70
20091;DHT22;10205;49.678;6.560;2023-11-19T04:19:03;14.90;80.70
20091;DHT22;10205;49.678;6.560;2023-11-19T04:21:30;14.90;80.70
20091;DHT22;10205;49.678;6.560;2023-11-19T04:23:57;14.90;80.70
20091;DHT22;10205;49.678;6.560;2023-11-19T04:26:24;14.90;80.70
20091;DHT22;10205;49.678;6.560;2023-11-19T04:28:53;14.90;80.60
20091;DHT22;10205;49.678;6.560;2023-11-19T04:31:20;14.90;80.60
20091;DHT22;10205;49.678;6.560;2023-11-19T04:33:47;14.90;80.50
20091;DHT22;10205;49.678;6.560;2023-11-19T04:36:18;14.90;80.50
20091;DHT22;10205;49.678;6.560;2023-11-19T04:38:46;15.00;80.70
20091;DHT22;10205;49.678;6.560;2023-11-19T04:41:13;15.00;80.50
20091;DHT22;10205;49.678;6.560;2023-11-19T04:43:40;15.00;80.50
20091;DHT22;10205;49.678;6.560;2023-11-19T04:46:09;15.00;80.60
20091;DHT22;10205;49.678;6.560;2023-11-19T04:48:40;15.10;80.70
20091;DHT22;10205;49.678;6.560;2023-11-19T04:51:07;15.10;80.60
20091;DHT22;10205;49.678;6.560;2023-11-19T04:53:34;15.10;80.60
20091;DHT22;10205;49.678;6.560;2023-11-19T04:56:07;15.10;80.60
20091;DHT22;10205;49.678;6.560;2023-11-19T04:58:35;15.10;80.70
20091;DHT22;10205;49.678;6.560;2023-11-19T05:01:03;15.10;80.60
20091;DHT22;10205;49.678;6.560;2023-11-19T05:03:32;15.20;80.60
20091;DHT22;10205;49.678;6.560;2023-11-19T05:05:59;15.20;80.60
20091;DHT22;10205;49.678;6.560;2023-11-19T05:08:26;15.20;80.60
20091;DHT22;10205;49.678;6.560;2023-11-19T05:10:53;15.20;80.60
20091;DHT22;10205;49.678;6.560;2023-11-19T05:13:20;15.30;80.70
20091;DHT22;10205;49.678;6.560;2023-11-19T05:15:47;15.30;80.70
20091;DHT22;10205;49.678;6.560;2023-11-19T05:18:14;15.30;80.70
20091;DHT22;10205;49.678;6.560;2023-11-19T05:20:43;15.30;80.70
20091;DHT22;10205;49.678;6.560;2023-11-19T05:23:10;15.30;80.70
20091;DHT22;10205;49.678;6.560;2023-11-19T05:25:37;15.40;80.70
20091;DHT22;10205;49.678;6.560;2023-11-19T05:28:04;15.30;80.70
20091;DHT22;10205;49.678;6.560;2023-11-19T05:30:31;15.40;80.70
20091;DHT22;10205;49.678;6.560;2023-11-19T05:32:58;15.40;80.70
20091;DHT22;10205;49.678;6.560;2023-11-19T05:35:26;15.40;80.70
20091;DHT22;10205;49.678;6.560;2023-11-19T05:37:54;15.40;80.70
20091;DHT22;10205;49.678;6.560;2023-11-19T05:40:21;15.40;80.70
20091;DHT22;10205;49.678;6.560;2023-11-19T05:42:48;15.40;80.60
20091;DHT22;10205;49.678;6.560;2023-11-19T05:45:15;15.50;80.70
20091;DHT22;10205;49.678;6.560;2023-11-19T05:47:43;15.50;80.50
20091;DHT22;10205;49.678;6.560;2023-11-19T05:50:10;15.50;80.50
20091;DHT22;10205;49.678;6.560;2023-11-19T05:52:37;15.50;80.60
20091;DHT22;10205;49.678;6.560;2023-11-19T05:55:06;15.50;80.40
20091;DHT22;10205;49.678;6.560;2023-11-19T05:57:36;15.50;80.40
20091;DHT22;10205;49.678;6.560;2023-11-19T06:00:04;15.50;80.30
20091;DHT22;10205;49.678;6.560;2023-11-19T06:02:33;15.60;80.40
20091;DHT22;10205;49.678;6.560;2023-11-19T06:05:03;15.50;80.30
20091;DHT22;10205;49.678;6.560;2023-11-19T06:07:31;15.50;80.20
20091;DHT22;10205;49.678;6.560;2023-11-19T06:09:58;15.60;80.20
20091;DHT22;10205;49.678;6.560;2023-11-19T06:12:27;15.60;80.10
20091;DHT22;10205;49.678;6.560;2023-11-19T06:14:54;15.60;80.10
20091;DHT22;10205;49.678;6.560;2023-11-19T06:17:22;15.60;80.00
20091;DHT22;10205;49.678;6.560;2023-11-19T06:19:49;15.60;80.00
20091;DHT22;10205;49.678;6.560;2023-11-19T06:22:16;15.60;80.00
20091;DHT22;10205;49.678;6.560;2023-11-19T06:24:43;15.60;79.90
20091;DHT22;10205;49.678;6.560;2023-11-19T06:27:10;15.60;79.90
20091;DHT22;10205;49.678;6.560;2023-11-19T06:29:41;15.60;79.90
20091;DHT22;10205;49.678;6.560;2023-11-19T06:32:08;15.60;79.80
20091;DHT22;10205;49.678;6.560;2023-11-19T06:34:35;15.60;79.90
20091;DHT22;10205;49.678;6.560;2023-11-19T06:37:04;15.60;79.80
20091;DHT22;10205;49.678;6.560;2023-11-19T06:39:31;15.60;79.70
20091;DHT22;10205;49.678;6.560;2023-11-19T06:42:02;15.60;79.70
20091;DHT22;10205;49.678;6.560;2023-11-19T06:44:29;15.60;79.70
20091;DHT22;10205;49.678;6.560;2023-11-19T06:46:58;15.70;79.80
20091;DHT22;10205;49.678;6.560;2023-11-19T06:49:25;15.60;79.70
20091;DHT22;10205;49.678;6.560;2023-11-19T06:51:52;15.60;79.70
20091;DHT22;10205;49.678;6.560;2023-11-19T06:54:19;15.70;80.10
20091;DHT22;10205;49.678;6.560;2023-11-19T06:56:46;15.70;79.80
20091;DHT22;10205;49.678;6.560;2023-11-19T06:59:15;15.70;79.80
20091;DHT22;10205;49.678;6.560;2023-11-19T07:01:42;15.70;79.80
20091;DHT22;10205;49.678;6.560;2023-11-19T07:04:12;15.60;79.80
20091;DHT22;10205;49.678;6.560;2023-11-19T07:06:39;15.70;79.80
20091;DHT22;10205;49.678;6.560;2023-11-19T07:09:07;15.70;79.80
20091;DHT22;10205;49.678;6.560;2023-11-19T07:11:36;15.70;79.80
20091;DHT22;10205;49.678;6.560;2023-11-19T07:14:04;15.70;79.80
20091;DHT22;10205;49.678;6.560;2023-11-19T07:16:32;15.70;79.80
20091;DHT22;10205;49.678;6.560;2023-11-19T07:18:59;15.70;79.80
20091;DHT22;10205;49.678;6.560;2023-11-19T07:21:28;15.70;79.70
20091;DHT22;10205;49.678;6.560;2023-11-19T07:23:55;15.70;79.70
20091;DHT22;10205;49.678;6.560;2023-11-19T07:26:23;15.70;79.70
20091;DHT22;10205;49.678;6.560;2023-11-19T07:28:50;15.70;79.80
20091;DHT22;10205;49.678;6.560;2023-11-19T07:31:18;15.70;79.80
20091;DHT22;10205;49.678;6.560;2023-11-19T07:33:45;15.70;79.80
20091;DHT22;10205;49.678;6.560;2023-11-19T07:36:13;15.70;79.80
20091;DHT22;10205;49.678;6.560;2023-11-19T07:38:42;15.70;79.70
20091;DHT22;10205;49.678;6.560;2023-11-19T07:41:09;15.70;79.70
20091;DHT22;10205;49.678;6.560;2023-11-19T07:43:39;15.80;79.80
20091;DHT22;10205;49.678;6.560;2023-11-19T07:46:10;15.80;79.70
20091;DHT22;10205;49.678;6.560;2023-11-19T07:48:39;15.80;79.60
20091;DHT22;10205;49.678;6.560;2023-11-19T07:51:07;15.80;79.60
20091;DHT22;10205;49.678;6.560;2023-11-19T07:53:34;15.80;79.60
20091;DHT22;10205;49.678;6.560;2023-11-19T07:56:07;15.70;79.50
20091;DHT22;10205;49.678;6.560;2023-11-19T07:58:34;15.70;79.50
20091;DHT22;10205;49.678;6.560;2023-11-19T08:01:02;15.80;79.60
20091;DHT22;10205;49.678;6.560;2023-11-19T08:03:29;15.80;79.60
20091;DHT22;10205;49.678;6.560;2023-11-19T08:05:59;15.80;80.40
20091;DHT22;10205;49.678;6.560;2023-11-19T08:08:26;15.80;79.60
20091;DHT22;10205;49.678;6.560;2023-11-19T08:10:55;15.80;79.50
20091;DHT22;10205;49.678;6.560;2023-11-19T08:13:23;15.80;79.40
20091;DHT22;10205;49.678;6.560;2023-11-19T08:15:51;15.80;79.40
20091;DHT22;10205;49.678;6.560;2023-11-19T08:18:18;15.80;79.40
20091;DHT22;10205;49.678;6.560;2023-11-19T08:20:45;15.80;79.40
20091;DHT22;10205;49.678;6.560;2023-11-19T08:23:18;15.80;79.40
20091;DHT22;10205;49.678;6.560;2023-11-19T08:25:45;15.80;79.40
20091;DHT22;10205;49.678;6.560;2023-11-19T08:28:12;15.80;79.50
20091;DHT22;10205;49.678;6.560;2023-11-19T08:30:41;15.80;79.50
20091;DHT22;10205;49.678;6.560;2023-11-19T08:33:09;15.80;79.50
20091;DHT22;10205;49.678;6.560;2023-11-19T08:35:37;15.80;79.40
20091;DHT22;10205;49.678;6.560;2023-11-19T08:38:04;15.80;79.40
20091;DHT22;10205;49.678;6.560;2023-11-19T08:40:31;15.80;79.50
20091;DHT22;10205;49.678;6.560;2023-11-19T08:42:58;15.90;79.50
20091;DHT22;10205;49.678;6.560;2023-11-19T08:45:25;15.80;79.40
20091;DHT22;10205;49.678;6.560;2023-11-19T08:47:54;15.80;79.40
20091;DHT22;10205;49.678;6.560;2023-11-19T08:50:21;15.80;79.40
20091;DHT22;10205;49.678;6.560;2023-11-19T08:52:48;15.90;79.40
20091;DHT22;10205;49.678;6.560;2023-11-19T08:55:15;15.80;79.40
20091;DHT22;10205;49.678;6.560;2023-11-19T08:57:42;15.90;79.40
20091;DHT22;10205;49.678;6.560;2023-11-19T09:00:09;15.90;79.40
20091;DHT22;10205;49.678;6.560;2023-11-19T09:02:39;15.90;79.50
20091;DHT22;10205;49.678;6.560;2023-11-19T09:05:08;15.90;79.40
20091;DHT22;10205;49.678;6.560;2023-11-19T09:07:35;15.90;79.40
20091;DHT22;10205;49.678;6.560;2023-11-19T09:10:03;15.90;80.30
20091;DHT22;10205;49.678;6.560;2023-11-19T09:12:31;15.90;79.50
20091;DHT22;10205;49.678;6.560;2023-11-19T09:14:58;15.90;79.50
20091;DHT22;10205;49.678;6.560;2023-11-19T09:17:25;15.90;79.50
20091;DHT22;10205;49.678;6.560;2023-11-19T09:19:52;15.90;79.60
20091;DHT22;10205;49.678;6.560;2023-11-19T09:22:21;16.00;79.70
20091;DHT22;10205;49.678;6.560;2023-11-19T09:24:48;15.90;79.60
20091;DHT22;10205;49.678;6.560;2023-11-19T09:27:15;16.00;79.70
20091;DHT22;10205;49.678;6.560;2023-11-19T09:29:42;16.00;79.60
20091;DHT22;10205;49.678;6.560;2023-11-19T09:32:11;16.00;79.60
20091;DHT22;10205;49.678;6.560;2023-11-19T09:34:38;16.00;79.50
20091;DHT22;10205;49.678;6.560;2023-11-19T09:37:05;16.10;79.50
20091;DHT22;10205;49.678;6.560;2023-11-19T09:39:34;16.10;79.40
20091;DHT22;10205;49.678;6.560;2023-11-19T09:42:02;16.10;79.20
20091;DHT22;10205;49.678;6.560;2023-11-19T09:44:30;16.10;79.20
20091;DHT22;10205;49.678;6.560;2023-11-19T09:46:58;16.20;79.20
20091;DHT22;10205;49.678;6.560;2023-11-19T09:49:27;16.20;78.90
20091;DHT22;10205;49.678;6.560;2023-11-19T09:51:55;16.20;78.70
20091;DHT22;10205;49.678;6.560;2023-11-19T09:54:22;16.30;78.70
20091;DHT22;10205;49.678;6.560;2023-11-19T09:56:51;16.30;78.80
20091;DHT22;10205;49.678;6.560;2023-11-19T09:59:28;16.30;78.60
20091;DHT22;10205;49.678;6.560;2023-11-19T10:01:56;16.40;78.70
20091;DHT22;10205;49.678;6.560;2023-11-19T10:04:24;16.50;78.60
20091;DHT22;10205;49.678;6.560;2023-11-19T10:06:55;16.50;78.30
20091;DHT22;10205;49.678;6.560;2023-11-19T10:09:23;16.50;77.90
20091;DHT22;10205;49.678;6.560;2023-11-19T10:11:51;16.50;77.60
20091;DHT22;10205;49.678;6.560;2023-11-19T10:14:20;16.60;77.40
20091;DHT22;10205;49.678;6.560;2023-11-19T10:16:50;16.60;77.10
20091;DHT22;10205;49.678;6.560;2023-11-19T10:19:19;16.60;77.00
20091;DHT22;10205;49.678;6.560;2023-11-19T10:21:47;16.70;76.70
20091;DHT22;10205;49.678;6.560;2023-11-19T10:26:51;16.70;76.50
20091;DHT22;10205;49.678;6.560;2023-11-19T10:29:18;16.70;76.20
20091;DHT22;10205;49.678;6.560;2023-11-19T10:31:56;16.70;76.20
20091;DHT22;10205;49.678;6.560;2023-11-19T10:34:27;16.80;75.80
20091;DHT22;10205;49.678;6.560;2023-11-19T10:36:55;16.80;76.10
20091;DHT22;10205;49.678;6.560;2023-11-19T10:39:23;16.80;75.90
20091;DHT22;10205;49.678;6.560;2023-11-19T10:41:56;16.90;75.80
20091;DHT22;10205;49.678;6.560;2023-11-19T10:44:42;16.80;75.10
20091;DHT22;10205;49.678;6.560;2023-11-19T10:47:12;16.90;75.70
20091;DHT22;10205;49.678;6.560;2023-11-19T10:49:43;16.90;75.20
20091;DHT22;10205;49.678;6.560;2023-11-19T10:52:12;16.90;75.40
20091;DHT22;10205;49.678;6.560;2023-11-19T10:54:49;16.90;75.30
20091;DHT22;10205;49.678;6.560;2023-11-19T10:57:21;16.90;74.80
20091;DHT22;10205;49.678;6.560;2023-11-19T11:00:00;16.90;74.80
20091;DHT22;10205;49.678;6.560;2023-11-19T11:02:35;16.90;74.40
20091;DHT22;10205;49.678;6.560;2023-11-19T11:05:10;17.00;74.70
20091;DHT22;10205;49.678;6.560;2023-11-19T11:07:40;17.00;75.00
20091;DHT22;10205;49.678;6.560;2023-11-19T11:10:12;17.00;75.00
20091;DHT22;10205;49.678;6.560;2023-11-19T11:12:43;17.00;75.10
20091;DHT22;10205;49.678;6.560;2023-11-19T11:15:17;17.00;75.10
20091;DHT22;10205;49.678;6.560;2023-11-19T11:17:46;17.00;74.80
20091;DHT22;10205;49.678;6.560;2023-11-19T11:20:13;17.00;75.00
20091;DHT22;10205;49.678;6.560;2023-11-19T11:22:49;17.00;74.70
20091;DHT22;10205;49.678;6.560;2023-11-19T11:25:37;17.00;74.10
20091;DHT22;10205;49.678;6.560;2023-11-19T11:28:26;17.00;74.40
20091;DHT22;10205;49.678;6.560;2023-11-19T11:31:10;17.00;74.40
20091;DHT22;10205;49.678;6.560;2023-11-19T11:34:09;17.00;74.70
20091;DHT22;10205;49.678;6.560;2023-11-19T11:36:57;17.00;74.60
20091;DHT22;10205;49.678;6.560;2023-11-19T11:39:32;17.00;74.40
20091;DHT22;10205;49.678;6.560;2023-11-19T11:42:32;17.00;74.60
20091;DHT22;10205;49.678;6.560;2023-11-19T11:45:03;17.00;73.50
20091;DHT22;10205;49.678;6.560;2023-11-19T11:48:08;17.00;74.30
20091;DHT22;10205;49.678;6.560;2023-11-19T11:50:55;17.00;73.50
20091;DHT22;10205;49.678;6.560;2023-11-19T11:53:26;17.00;73.90
20091;DHT22;10205;49.678;6.560;2023-11-19T11:55:58;17.00;74.30
20091;DHT22;10205;49.678;6.560;2023-11-19T11:58:30;17.00;74.20
20091;DHT22;10205;49.678;6.560;2023-11-19T12:01:02;17.00;74.10
20091;DHT22;10205;49.678;6.560;2023-11-19T12:03:33;17.00;73.90
20091;DHT22;10205;49.678;6.560;2023-11-19T12:06:00;16.90;73.60
20091;DHT22;10205;49.678;6.560;2023-11-19T12:08:30;16.90;73.60
20091;DHT22;10205;49.678;6.560;2023-11-19T12:11:04;16.90;73.60
20091;DHT22;10205;49.678;6.560;2023-11-19T12:13:53;16.90;73.40
20091;DHT22;10205;49.678;6.560;2023-11-19T12:16:25;16.80;72.30
20091;DHT22;10205;49.678;6.560;2023-11-19T12:18:54;16.90;73.00
20091;DHT22;10205;49.678;6.560;2023-11-19T12:21:29;16.90;73.10
20091;DHT22;10205;49.678;6.560;2023-11-19T12:23:58;16.90;72.20
20091;DHT22;10205;49.678;6.560;2023-11-19T12:26:38;16.80;72.70
20091;DHT22;10205;49.678;6.560;2023-11-19T12:29:06;16.90;72.60
20091;DHT22;10205;49.678;6.560;2023-11-19T12:31:35;16.90;73.00
20091;DHT22;10205;49.678;6.560;2023-11-19T12:34:07;16.80;72.60
20091;DHT22;10205;49.678;6.560;2023-11-19T12:36:38;16.90;72.50
20091;DHT22;10205;49.678;6.560;2023-11-19T12:39:07;16.80;72.80
20091;DHT22;10205;49.678;6.560;2023-11-19T12:41:52;16.80;72.80
20091;DHT22;10205;49.678;6.560;2023-11-19T12:44:21;16.80;72.30
20091;DHT22;10205;49.678;6.560;2023-11-19T12:47:03;16.80;72.90
20091;DHT22;10205;49.678;6.560;2023-11-19T12:49:32;16.80;72.10
20091;DHT22;10205;49.678;6.560;2023-11-19T12:51:59;16.80;72.80
20091;DHT22;10205;49.678;6.560;2023-11-19T12:54:34;16.80;72.80
20091;DHT22;10205;49.678;6.560;2023-11-19T12:57:02;16.80;72.40
20091;DHT22;10205;49.678;6.560;2023-11-19T12:59:32;16.80;73.00
20091;DHT22;10205;49.678;6.560;2023-11-19T13:01:59;16.80;73.10
20091;DHT22;10205;49.678;6.560;2023-11-19T13:04:32;16.80;73.00
20091;DHT22;10205;49.678;6.560;2023-11-19T13:07:01;16.80;72.40
20091;DHT22;10205;49.678;6.560;2023-11-19T13:09:30;16.80;72.80
20091;DHT22;10205;49.678;6.560;2023-11-19T13:11:58;16.80;72.80
20091;DHT22;10205;49.678;6.560;2023-11-19T13:14:36;16.90;72.80
20091;DHT22;10205;49.678;6.560;2023-11-19T13:17:04;16.80;72.40
20091;DHT22;10205;49.678;6.560;2023-11-19T13:19:34;16.80;72.70
20091;DHT22;10205;49.678;6.560;2023-11-19T13:22:01;16.90;72.60
20091;DHT22;10205;49.678;6.560;2023-11-19T13:24:29;16.90;72.60
20091;DHT22;10205;49.678;6.560;2023-11-19T13:26:56;16.80;72.30
20091;DHT22;10205;49.678;6.560;2023-11-19T13:29:28;16.90;72.60
20091;DHT22;10205;49.678;6.560;2023-11-19T13:31:55;16.90;73.00
20091;DHT22;10205;49.678;6.560;2023-11-19T13:34:22;16.90;72.10
20091;DHT22;10205;49.678;6.560;2023-11-19T13:36:53;16.90;71.70
20091;DHT22;10205;49.678;6.560;2023-11-19T13:39:20;16.90;71.40
20091;DHT22;10205;49.678;6.560;2023-11-19T13:41:49;16.90;71.70
20091;DHT22;10205;49.678;6.560;2023-11-19T13:44:16;16.90;72.30
20091;DHT22;10205;49.678;6.560;2023-11-19T13:46:45;16.90;71.70
20091;DHT22;10205;49.678;6.560;2023-11-19T13:49:12;16.90;71.70
20091;DHT22;10205;49.678;6.560;2023-11-19T13:51:41;16.90;71.40
20091;DHT22;10205;49.678;6.560;2023-11-19T13:54:09;16.90;71.40
20091;DHT22;10205;49.678;6.560;2023-11-19T13:56:40;16.90;71.10
20091;DHT22;10205;49.678;6.560;2023-11-19T13:59:10;16.80;71.10
20091;DHT22;10205;49.678;6.560;2023-11-19T14:01:37;16.90;71.10
20091;DHT22;10205;49.678;6.560;2023-11-19T14:04:05;16.90;70.90
20091;DHT22;10205;49.678;6.560;2023-11-19T14:06:32;16.90;70.90
20091;DHT22;10205;49.678;6.560;2023-11-19T14:09:00;16.90;70.80
20091;DHT22;10205;49.678;6.560;2023-11-19T14:11:28;16.80;70.60
20091;DHT22;10205;49.678;6.560;2023-11-19T14:13:56;16.80;70.50
20091;DHT22;10205;49.678;6.560;2023-11-19T14:16:26;16.80;70.80
20091;DHT22;10205;49.678;6.560;2023-11-19T14:18:53;16.80;70.30
20091;DHT22;10205;49.678;6.560;2023-11-19T14:21:21;16.80;70.30
20091;DHT22;10205;49.678;6.560;2023-11-19T14:23:48;16.80;70.20
20091;DHT22;10205;49.678;6.560;2023-11-19T14:26:15;16.80;70.20
20091;DHT22;10205;49.678;6.560;2023-11-19T14:28:44;16.80;70.50
20091;DHT22;10205;49.678;6.560;2023-11-19T14:31:12;16.80;70.40
20091;DHT22;10205;49.678;6.560;2023-11-19T14:33:41;16.80;70.60
20091;DHT22;10205;49.678;6.560;2023-11-19T14:36:09;16.80;70.50
20091;DHT22;10205;49.678;6.560;2023-11-19T14:38:38;16.80;70.30
20091;DHT22;10205;49.678;6.560;2023-11-19T14:41:06;16.80;70.10
20091;DHT22;10205;49.678;6.560;2023-11-19T14:43:33;16.80;70.10
20091;DHT22;10205;49.678;6.560;2023-11-19T14:46:02;16.80;70.10
20091;DHT22;10205;49.678;6.560;2023-11-19T14:48:30;16.80;69.70
20091;DHT22;10205;49.678;6.560;2023-11-19T14:50:58;16.80;69.70
20091;DHT22;10205;49.678;6.560;2023-11-19T14:53:25;16.80;69.90
20091;DHT22;10205;49.678;6.560;2023-11-19T14:55:53;16.80;69.90
20091;DHT22;10205;49.678;6.560;2023-11-19T14:58:20;16.80;70.00
20091;DHT22;10205;49.678;6.560;2023-11-19T15:00:51;16.80;70.00
20091;DHT22;10205;49.678;6.560;2023-11-19T15:03:20;16.80;70.00
20091;DHT22;10205;49.678;6.560;2023-11-19T15:05:49;16.70;70.00
20091;DHT22;10205;49.678;6.560;2023-11-19T15:08:16;16.70;70.10
20091;DHT22;10205;49.678;6.560;2023-11-19T15:10:47;16.70;70.40
20091;DHT22;10205;49.678;6.560;2023-11-19T15:13:16;16.70;71.20
20091;DHT22;10205;49.678;6.560;2023-11-19T15:15:44;16.70;70.40
20091;DHT22;10205;49.678;6.560;2023-11-19T15:18:13;16.70;70.40
20091;DHT22;10205;49.678;6.560;2023-11-19T15:20:42;16.70;70.40
20091;DHT22;10205;49.678;6.560;2023-11-19T15:23:12;16.70;70.30
20091;DHT22;10205;49.678;6.560;2023-11-19T15:25:40;16.70;70.40
20091;DHT22;10205;49.678;6.560;2023-11-19T15:28:08;16.70;70.30
20091;DHT22;10205;49.678;6.560;2023-11-19T15:30:35;16.70;70.10
20091;DHT22;10205;49.678;6.560;2023-11-19T15:33:04;16.60;70.10
20091;DHT22;10205;49.678;6.560;2023-11-19T15:35:32;16.60;70.10
20091;DHT22;10205;49.678;6.560;2023-11-19T15:38:01;16.60;70.10
20091;DHT22;10205;49.678;6.560;2023-11-19T15:40:29;16.60;69.90
20091;DHT22;10205;49.678;6.560;2023-11-19T15:42:56;16.60;69.90
20091;DHT22;10205;49.678;6.560;2023-11-19T15:45:24;16.60;70.10
20091;DHT22;10205;49.678;6.560;2023-11-19T15:47:51;16.60;70.30
20091;DHT22;10205;49.678;6.560;2023-11-19T15:50:19;16.60;70.30
20091;DHT22;10205;49.678;6.560;2023-11-19T15:52:48;16.60;70.30
20091;DHT22;10205;49.678;6.560;2023-11-19T15:55:18;16.50;70.30